createdAt,value
2023-01-17T00:00:14.533Z,100.00
2023-01-17T00:03:05.037Z,100.00
2023-01-17T00:05:52.471Z,100.00
2023-01-17T00:08:57.070Z,100.00
2023-01-17T00:11:26.361Z,100.00
2023-01-17T00:13:55.706Z,100.00
2023-01-17T00:16:24.661Z,100.00
2023-01-17T00:19:12.302Z,100.00
2023-01-17T00:21:59.718Z,100.00
2023-01-17T00:24:50.339Z,100.00
2023-01-17T00:27:19.127Z,100.00
2023-01-17T00:29:47.901Z,100.00
2023-01-17T00:32:16.553Z,100.00
2023-01-17T00:34:47.105Z,100.00
2023-01-17T00:37:15.691Z,100.00
2023-01-17T00:39:44.276Z,100.00
2023-01-17T00:42:12.749Z,100.00
2023-01-17T00:45:00.127Z,100.00
2023-01-17T00:47:47.711Z,100.00
2023-01-17T00:50:35.340Z,100.00
2023-01-17T00:53:24.095Z,100.00
2023-01-17T00:56:11.432Z,100.00
2023-01-17T00:58:59.051Z,100.00
2023-01-17T01:01:46.579Z,100.00
2023-01-17T01:04:34.285Z,100.00
2023-01-17T01:07:22.634Z,100.00
2023-01-17T01:10:09.979Z,100.00
2023-01-17T01:12:57.393Z,100.00
2023-01-17T01:15:44.711Z,100.00
2023-01-17T01:18:32.149Z,100.00
2023-01-17T01:21:23.054Z,100.00
2023-01-17T01:24:10.280Z,100.00
2023-01-17T01:26:57.792Z,100.00
2023-01-17T01:29:45.309Z,100.00
2023-01-17T01:32:32.736Z,100.00
2023-01-17T01:35:01.551Z,100.00
2023-01-17T01:37:32.161Z,100.00
2023-01-17T01:40:00.747Z,100.00
2023-01-17T01:42:29.311Z,100.00
2023-01-17T01:44:57.895Z,100.00
2023-01-17T01:47:36.457Z,100.00
2023-01-17T01:50:08.586Z,100.00
2023-01-17T01:52:42.929Z,100.00
2023-01-17T01:55:45.901Z,100.00
2023-01-17T01:58:19.283Z,100.00
2023-01-17T02:00:47.958Z,100.00
2023-01-17T02:03:29.830Z,100.00
2023-01-17T02:06:05.194Z,100.00
2023-01-17T02:08:34.117Z,100.00
2023-01-17T02:11:02.781Z,100.00
2023-01-17T02:13:31.788Z,100.00
2023-01-17T02:16:19.415Z,100.00
2023-01-17T02:19:08.051Z,100.00
2023-01-17T02:22:11.072Z,100.00
2023-01-17T02:24:53.658Z,100.00
2023-01-17T02:27:27.958Z,100.00
2023-01-17T02:30:11.932Z,100.00
2023-01-17T02:33:04.404Z,100.00
2023-01-17T02:35:53.943Z,100.00
2023-01-17T02:38:45.877Z,100.00
2023-01-17T02:41:20.003Z,100.00
2023-01-17T02:43:52.671Z,100.00
2023-01-17T02:46:21.570Z,100.00
2023-01-17T02:48:50.804Z,100.00
2023-01-17T02:51:39.407Z,100.00
2023-01-17T02:54:31.471Z,100.00
2023-01-17T02:57:28.787Z,100.00
2023-01-17T03:00:03.324Z,100.00
2023-01-17T03:02:41.484Z,100.00
2023-01-17T03:05:42.170Z,100.00
2023-01-17T03:08:11.977Z,100.00
2023-01-17T03:10:41.685Z,100.00
2023-01-17T03:13:10.360Z,100.00
2023-01-17T03:15:40.883Z,99.95
2023-01-17T03:18:15.258Z,99.81
2023-01-17T03:20:43.866Z,99.65
2023-01-17T03:23:12.487Z,99.46
2023-01-17T03:25:41.371Z,99.20
2023-01-17T03:28:10.159Z,98.89
2023-01-17T03:30:39.373Z,98.75
2023-01-17T03:33:08.349Z,98.41
2023-01-17T03:35:37.549Z,98.20
2023-01-17T03:38:06.440Z,98.08
2023-01-17T03:40:35.008Z,98.08
2023-01-17T03:43:03.711Z,98.10
2023-01-17T03:45:32.445Z,98.18
2023-01-17T03:48:01.273Z,98.16
2023-01-17T03:50:30.056Z,98.16
2023-01-17T03:52:59.335Z,98.16
2023-01-17T03:55:28.165Z,98.23
2023-01-17T03:57:57.160Z,98.02
2023-01-17T04:00:26.257Z,98.05
2023-01-17T04:02:55.637Z,98.10
2023-01-17T04:05:24.229Z,98.18
2023-01-17T04:07:53.008Z,98.36
2023-01-17T04:10:21.924Z,98.78
2023-01-17T04:12:50.499Z,98.89
2023-01-17T04:15:19.391Z,99.11
2023-01-17T04:17:48.074Z,99.26
2023-01-17T04:20:31.593Z,99.24
2023-01-17T04:23:00.400Z,99.46
2023-01-17T04:25:31.136Z,99.55
2023-01-17T04:28:02.260Z,99.78
2023-01-17T04:30:31.805Z,99.63
2023-01-17T04:33:00.673Z,99.71
2023-01-17T04:35:33.976Z,99.50
2023-01-17T04:38:02.521Z,99.68
2023-01-17T04:40:31.204Z,99.54
2023-01-17T04:43:00.233Z,99.61
2023-01-17T04:45:29.095Z,99.43
2023-01-17T04:48:03.527Z,99.28
2023-01-17T04:50:33.194Z,99.04
2023-01-17T04:53:01.800Z,98.77
2023-01-17T04:55:30.598Z,98.74
2023-01-17T04:57:59.409Z,98.94
2023-01-17T05:00:32.118Z,99.21
2023-01-17T05:03:07.206Z,99.13
2023-01-17T05:05:41.841Z,99.25
2023-01-17T05:08:16.895Z,99.36
2023-01-17T05:10:47.487Z,99.79
2023-01-17T05:13:16.163Z,99.82
2023-01-17T05:15:45.195Z,99.86
2023-01-17T05:18:18.052Z,99.72
2023-01-17T05:20:47.543Z,99.81
2023-01-17T05:23:18.090Z,99.41
2023-01-17T05:25:46.963Z,99.32
2023-01-17T05:28:15.759Z,98.92
2023-01-17T05:30:44.853Z,98.93
2023-01-17T05:33:13.748Z,98.98
2023-01-17T05:35:42.318Z,98.95
2023-01-17T05:38:12.146Z,98.58
2023-01-17T05:40:42.470Z,98.54
2023-01-17T05:43:12.574Z,98.58
2023-01-17T05:45:41.359Z,98.28
2023-01-17T05:48:10.251Z,98.40
2023-01-17T05:50:39.256Z,98.18
2023-01-17T05:53:10.588Z,97.99
2023-01-17T05:55:39.942Z,97.74
2023-01-17T05:58:13.807Z,97.45
2023-01-17T06:00:43.128Z,96.82
2023-01-17T06:03:12.324Z,96.57
2023-01-17T06:05:41.748Z,96.38
2023-01-17T06:08:11.205Z,95.96
2023-01-17T06:10:40.195Z,95.54
2023-01-17T06:13:15.802Z,95.14
2023-01-17T06:15:45.725Z,94.71
2023-01-17T06:18:16.684Z,94.24
2023-01-17T06:20:45.790Z,94.15
2023-01-17T06:23:15.514Z,93.67
2023-01-17T06:25:46.138Z,93.41
2023-01-17T06:28:19.828Z,93.08
2023-01-17T06:30:49.214Z,92.78
2023-01-17T06:33:19.128Z,92.25
2023-01-17T06:35:52.625Z,92.08
2023-01-17T06:38:21.792Z,91.98
2023-01-17T06:40:50.428Z,91.79
2023-01-17T06:43:21.234Z,91.28
2023-01-17T06:45:51.488Z,91.25
2023-01-17T06:48:20.389Z,91.33
2023-01-17T06:50:50.185Z,91.24
2023-01-17T06:53:19.916Z,91.04
2023-01-17T06:55:48.590Z,90.97
2023-01-17T06:58:17.390Z,90.80
2023-01-17T07:00:46.391Z,90.77
2023-01-17T07:03:26.065Z,90.66
2023-01-17T07:05:55.110Z,90.58
2023-01-17T07:08:23.690Z,90.67
2023-01-17T07:10:59.214Z,90.16
2023-01-17T07:13:28.850Z,90.20
2023-01-17T07:16:01.409Z,90.33
2023-01-17T07:18:33.279Z,90.12
2023-01-17T07:21:01.972Z,89.98
2023-01-17T07:23:30.968Z,89.85
2023-01-17T07:26:00.858Z,89.79
2023-01-17T07:28:29.664Z,89.97
2023-01-17T07:30:58.460Z,89.50
2023-01-17T07:33:27.456Z,89.29
2023-01-17T07:35:56.222Z,88.60
2023-01-17T07:38:24.934Z,88.59
2023-01-17T07:40:59.118Z,88.60
2023-01-17T07:43:27.732Z,88.16
2023-01-17T07:45:56.925Z,88.48
2023-01-17T07:48:29.665Z,87.98
2023-01-17T07:51:01.746Z,87.82
2023-01-17T07:53:32.940Z,87.63
2023-01-17T07:56:06.327Z,87.70
2023-01-17T07:58:35.814Z,87.43
2023-01-17T08:01:06.942Z,87.78
2023-01-17T08:03:37.076Z,87.83
2023-01-17T08:06:26.756Z,88.10
2023-01-17T08:08:57.409Z,88.10
2023-01-17T08:11:26.959Z,88.09
2023-01-17T08:13:59.953Z,88.31
2023-01-17T08:16:30.263Z,88.30
2023-01-17T08:18:59.597Z,88.19
2023-01-17T08:21:28.991Z,88.43
2023-01-17T08:23:57.620Z,87.95
2023-01-17T08:26:26.665Z,88.23
2023-01-17T08:28:57.916Z,88.01
2023-01-17T08:31:27.682Z,88.18
2023-01-17T08:33:57.697Z,88.05
2023-01-17T08:36:28.869Z,88.00
2023-01-17T08:38:58.359Z,87.85
2023-01-17T08:41:28.189Z,87.57
2023-01-17T08:43:57.183Z,87.38
2023-01-17T08:46:26.057Z,87.26
2023-01-17T08:48:56.804Z,87.63
2023-01-17T08:51:26.981Z,87.71
2023-01-17T08:53:56.335Z,87.38
2023-01-17T08:56:26.323Z,87.41
2023-01-17T08:58:55.150Z,87.57
2023-01-17T09:01:24.290Z,87.39
2023-01-17T09:03:54.370Z,86.86
2023-01-17T09:06:23.780Z,86.34
2023-01-17T09:08:55.305Z,85.87
2023-01-17T09:11:25.210Z,85.01
2023-01-17T09:13:55.863Z,84.93
2023-01-17T09:16:25.371Z,83.94
2023-01-17T09:18:58.536Z,82.13
2023-01-17T09:21:27.848Z,82.79
2023-01-17T09:23:57.032Z,81.70
2023-01-17T09:26:30.344Z,81.52
2023-01-17T09:28:59.014Z,81.03
2023-01-17T09:31:28.073Z,80.72
2023-01-17T09:33:58.170Z,80.89
2023-01-17T09:36:29.334Z,80.60
2023-01-17T09:38:59.209Z,79.96
2023-01-17T09:41:49.475Z,79.09
2023-01-17T09:44:48.072Z,78.87
2023-01-17T09:47:33.600Z,74.53
2023-01-17T09:50:26.417Z,71.98
2023-01-17T09:53:01.539Z,72.22
2023-01-17T09:56:01.101Z,71.40
2023-01-17T09:59:08.934Z,73.00
2023-01-17T10:01:44.011Z,71.15
2023-01-17T10:04:37.640Z,72.74
2023-01-17T10:07:48.925Z,71.37
2023-01-17T10:10:42.323Z,70.82
2023-01-17T10:13:29.530Z,71.78
2023-01-17T10:16:00.045Z,70.96
2023-01-17T10:19:08.354Z,69.49
2023-01-17T10:21:56.499Z,70.49
2023-01-17T10:25:22.851Z,71.70
2023-01-17T10:27:58.835Z,72.66
2023-01-17T10:30:34.832Z,72.27
2023-01-17T10:33:13.084Z,73.11
2023-01-17T10:35:53.066Z,73.22
2023-01-17T10:38:29.047Z,73.97
2023-01-17T10:41:04.155Z,73.69
2023-01-17T10:44:02.582Z,73.47
2023-01-17T10:46:42.031Z,73.42
2023-01-17T10:49:17.262Z,73.43
2023-01-17T10:52:07.050Z,74.33
2023-01-17T10:55:04.415Z,74.97
2023-01-17T10:57:41.136Z,75.25
2023-01-17T11:00:31.777Z,74.73
2023-01-17T11:03:01.238Z,74.30
2023-01-17T11:05:32.323Z,73.89
2023-01-17T11:08:09.114Z,74.06
2023-01-17T11:10:54.741Z,74.81
2023-01-17T11:13:34.650Z,75.03
2023-01-17T11:16:06.824Z,74.95
2023-01-17T11:18:37.372Z,75.40
2023-01-17T11:21:14.976Z,74.73
2023-01-17T11:23:46.267Z,74.70
2023-01-17T11:26:27.819Z,74.99
2023-01-17T11:29:37.578Z,75.42
2023-01-17T11:32:21.944Z,73.62
2023-01-17T11:35:14.911Z,73.57
2023-01-17T11:38:18.411Z,72.88
2023-01-17T11:40:51.079Z,72.34
2023-01-17T11:43:25.691Z,71.98
2023-01-17T11:46:21.517Z,70.89
2023-01-17T11:48:56.422Z,70.17
2023-01-17T11:51:30.171Z,70.18
2023-01-17T11:54:14.871Z,71.29
2023-01-17T11:56:48.073Z,72.25
2023-01-17T11:59:32.361Z,71.73
2023-01-17T12:02:32.097Z,72.00
2023-01-17T12:05:20.008Z,72.50
2023-01-17T12:08:00.907Z,73.48
2023-01-17T12:10:59.461Z,72.93
2023-01-17T12:14:02.923Z,71.71
2023-01-17T12:17:09.054Z,71.35
2023-01-17T12:20:05.337Z,70.90
2023-01-17T12:22:40.916Z,71.18
2023-01-17T12:25:27.814Z,70.91
2023-01-17T12:28:17.037Z,70.42
2023-01-17T12:31:32.877Z,70.35
2023-01-17T12:34:17.231Z,72.14
2023-01-17T12:37:02.506Z,71.47
2023-01-17T12:39:41.273Z,70.95
2023-01-17T12:42:14.944Z,70.14
2023-01-17T12:44:56.119Z,72.70
2023-01-17T12:47:26.402Z,74.04
2023-01-17T12:50:01.780Z,70.77
2023-01-17T12:52:53.772Z,69.95
2023-01-17T12:55:47.556Z,68.08
2023-01-17T12:58:22.849Z,67.46
2023-01-17T13:00:57.485Z,67.85
2023-01-17T13:03:32.134Z,67.28
2023-01-17T13:06:02.083Z,67.63
2023-01-17T13:08:46.911Z,68.93
2023-01-17T13:11:20.843Z,68.22
2023-01-17T13:13:51.806Z,68.86
2023-01-17T13:16:28.450Z,67.87
2023-01-17T13:19:04.313Z,67.83
2023-01-17T13:21:34.349Z,69.13
2023-01-17T13:24:31.947Z,68.85
2023-01-17T13:27:39.407Z,69.13
2023-01-17T13:30:23.467Z,69.03
2023-01-17T13:33:28.153Z,69.25
2023-01-17T13:36:29.111Z,68.11
2023-01-17T13:39:18.276Z,65.99
2023-01-17T13:41:57.216Z,66.54
2023-01-17T13:44:28.557Z,66.49
2023-01-17T13:47:07.609Z,67.00
2023-01-17T13:49:49.180Z,65.70
2023-01-17T13:52:21.236Z,67.02
2023-01-17T13:54:57.597Z,66.56
2023-01-17T13:57:29.479Z,65.08
2023-01-17T14:00:28.144Z,65.26
2023-01-17T14:02:57.176Z,63.62
2023-01-17T14:05:32.366Z,64.58
2023-01-17T14:08:06.488Z,64.30
2023-01-17T14:10:42.345Z,65.09
2023-01-17T14:13:40.220Z,64.77
2023-01-17T14:16:29.894Z,64.01
2023-01-17T14:18:58.565Z,65.36
2023-01-17T14:21:32.490Z,66.21
2023-01-17T14:24:05.780Z,66.43
2023-01-17T14:26:41.426Z,67.58
2023-01-17T14:29:50.149Z,68.07
2023-01-17T14:32:24.486Z,68.06
2023-01-17T14:34:54.206Z,67.75
2023-01-17T14:37:41.493Z,68.28
2023-01-17T14:40:19.289Z,67.93
2023-01-17T14:42:53.904Z,67.50
2023-01-17T14:45:28.695Z,68.72
2023-01-17T14:47:59.068Z,68.60
2023-01-17T14:50:38.203Z,68.82
2023-01-17T14:53:13.137Z,68.00
2023-01-17T14:55:49.806Z,68.43
2023-01-17T14:58:20.427Z,68.87
2023-01-17T15:00:50.875Z,69.14
2023-01-17T15:03:19.761Z,69.10
2023-01-17T15:05:52.884Z,68.69
2023-01-17T15:08:26.442Z,68.44
2023-01-17T15:11:03.582Z,68.78
2023-01-17T15:13:45.153Z,68.68
2023-01-17T15:16:21.201Z,69.59
2023-01-17T15:18:51.440Z,69.94
2023-01-17T15:21:22.821Z,70.29
2023-01-17T15:23:57.323Z,70.56
2023-01-17T15:26:28.426Z,70.59
2023-01-17T15:29:08.341Z,70.99
2023-01-17T15:31:51.371Z,70.79
2023-01-17T15:34:28.943Z,71.32
2023-01-17T15:37:09.145Z,71.29
2023-01-17T15:39:41.452Z,71.28
2023-01-17T15:42:22.980Z,71.48
2023-01-17T15:44:58.881Z,71.61
2023-01-17T15:47:30.899Z,71.48
2023-01-17T15:50:01.078Z,71.08
2023-01-17T15:52:31.447Z,71.07
2023-01-17T15:55:15.014Z,70.97
2023-01-17T15:57:48.853Z,71.11
2023-01-17T16:00:27.094Z,71.30
2023-01-17T16:02:59.256Z,71.48
2023-01-17T16:05:31.442Z,71.71
2023-01-17T16:08:04.021Z,71.80
2023-01-17T16:10:38.318Z,72.10
2023-01-17T16:13:11.762Z,71.97
2023-01-17T16:15:42.372Z,72.32
2023-01-17T16:18:25.087Z,72.47
2023-01-17T16:21:02.273Z,72.62
2023-01-17T16:23:31.254Z,72.59
2023-01-17T16:26:00.332Z,72.98
2023-01-17T16:28:32.189Z,73.63
2023-01-17T16:31:01.330Z,73.51
2023-01-17T16:33:30.895Z,73.91
2023-01-17T16:36:00.501Z,74.42
2023-01-17T16:38:30.112Z,74.47
2023-01-17T16:40:59.619Z,74.31
2023-01-17T16:43:28.807Z,73.65
2023-01-17T16:45:58.616Z,73.36
2023-01-17T16:48:29.664Z,73.38
2023-01-17T16:50:59.878Z,73.39
2023-01-17T16:53:29.180Z,73.59
2023-01-17T16:56:00.750Z,73.68
2023-01-17T16:58:30.037Z,74.27
2023-01-17T17:01:00.713Z,74.00
2023-01-17T17:03:30.274Z,74.46
2023-01-17T17:06:00.974Z,74.93
2023-01-17T17:08:30.433Z,74.90
2023-01-17T17:11:16.805Z,75.02
2023-01-17T17:13:47.721Z,75.52
2023-01-17T17:16:22.924Z,76.13
2023-01-17T17:18:58.788Z,76.19
2023-01-17T17:21:29.356Z,76.03
2023-01-17T17:24:03.211Z,75.85
2023-01-17T17:26:37.191Z,75.72
2023-01-17T17:29:07.640Z,75.91
2023-01-17T17:31:38.113Z,76.30
2023-01-17T17:34:11.855Z,76.09
2023-01-17T17:36:41.771Z,76.35
2023-01-17T17:39:15.106Z,77.07
2023-01-17T17:41:46.127Z,77.24
2023-01-17T17:44:15.095Z,77.27
2023-01-17T17:46:45.175Z,77.72
2023-01-17T17:49:17.278Z,77.44
2023-01-17T17:51:50.164Z,77.68
2023-01-17T17:54:20.717Z,78.70
2023-01-17T17:56:51.881Z,79.02
2023-01-17T17:59:23.164Z,79.08
2023-01-17T18:01:54.683Z,79.00
2023-01-17T18:04:23.614Z,79.27
2023-01-17T18:06:57.203Z,79.75
2023-01-17T18:09:26.804Z,80.24
2023-01-17T18:11:56.615Z,80.11
2023-01-17T18:14:29.314Z,80.15
2023-01-17T18:16:58.551Z,80.02
2023-01-17T18:19:29.347Z,80.94
2023-01-17T18:21:59.765Z,81.43
2023-01-17T18:24:30.778Z,81.39
2023-01-17T18:27:01.541Z,82.43
2023-01-17T18:29:31.982Z,82.45
2023-01-17T18:32:03.620Z,82.64
2023-01-17T18:34:37.333Z,82.71
2023-01-17T18:37:07.716Z,83.15
2023-01-17T18:39:39.047Z,83.54
2023-01-17T18:42:09.823Z,83.99
2023-01-17T18:44:42.606Z,84.31
2023-01-17T18:47:14.335Z,84.22
2023-01-17T18:49:44.788Z,83.45
2023-01-17T18:52:15.853Z,83.56
2023-01-17T18:54:45.948Z,83.78
2023-01-17T18:57:16.544Z,84.32
2023-01-17T18:59:48.597Z,84.21
2023-01-17T19:02:22.138Z,84.23
2023-01-17T19:04:53.427Z,85.24
2023-01-17T19:07:30.297Z,85.35
2023-01-17T19:10:00.675Z,85.33
2023-01-17T19:12:31.247Z,85.46
2023-01-17T19:15:01.282Z,85.96
2023-01-17T19:17:31.219Z,86.00
2023-01-17T19:20:00.119Z,85.95
2023-01-17T19:22:31.199Z,85.66
2023-01-17T19:25:01.758Z,85.99
2023-01-17T19:27:32.293Z,86.02
2023-01-17T19:30:02.983Z,85.56
2023-01-17T19:32:33.884Z,85.38
2023-01-17T19:35:05.174Z,85.39
2023-01-17T19:37:35.344Z,85.24
2023-01-17T19:40:06.703Z,85.29
2023-01-17T19:42:36.751Z,85.00
2023-01-17T19:45:09.316Z,85.67
2023-01-17T19:47:40.525Z,85.87
2023-01-17T19:50:13.978Z,86.20
2023-01-17T19:52:44.089Z,86.58
2023-01-17T19:55:15.057Z,86.92
2023-01-17T19:57:45.892Z,86.84
2023-01-17T20:00:19.468Z,87.15
2023-01-17T20:02:57.274Z,87.26
2023-01-17T20:05:35.504Z,87.75
2023-01-17T20:08:11.501Z,87.50
2023-01-17T20:10:42.121Z,87.85
2023-01-17T20:13:13.403Z,88.18
2023-01-17T20:15:43.866Z,88.04
2023-01-17T20:18:16.312Z,88.23
2023-01-17T20:20:57.096Z,88.96
2023-01-17T20:23:27.642Z,88.59
2023-01-17T20:25:59.521Z,88.42
2023-01-17T20:28:31.264Z,88.64
2023-01-17T20:31:15.122Z,88.78
2023-01-17T20:33:47.539Z,88.68
2023-01-17T20:36:18.971Z,89.05
2023-01-17T20:39:00.169Z,89.09
2023-01-17T20:42:13.507Z,89.57
2023-01-17T20:44:57.310Z,89.75
2023-01-17T20:47:34.556Z,90.07
2023-01-17T20:50:10.321Z,90.07
2023-01-17T20:52:40.797Z,90.29
2023-01-17T20:55:13.746Z,90.02
2023-01-17T20:57:46.595Z,89.84
2023-01-17T21:00:19.965Z,90.02
2023-01-17T21:02:52.922Z,89.79
2023-01-17T21:05:34.328Z,90.17
2023-01-17T21:08:22.729Z,89.95
2023-01-17T21:10:56.113Z,89.89
2023-01-17T21:13:29.823Z,90.01
2023-01-17T21:16:04.587Z,89.97
2023-01-17T21:18:38.555Z,89.97
2023-01-17T21:21:20.792Z,90.26
2023-01-17T21:23:57.446Z,90.47
2023-01-17T21:26:30.362Z,90.89
2023-01-17T21:29:03.642Z,90.90
2023-01-17T21:31:37.088Z,90.39
2023-01-17T21:34:11.821Z,90.14
2023-01-17T21:36:47.338Z,89.90
2023-01-17T21:39:19.414Z,89.87
2023-01-17T21:41:52.180Z,90.08
2023-01-17T21:44:23.863Z,89.96
2023-01-17T21:46:56.657Z,90.00
2023-01-17T21:49:30.565Z,90.29
2023-01-17T21:52:02.391Z,90.50
2023-01-17T21:54:59.508Z,90.39
2023-01-17T21:57:51.976Z,90.31
2023-01-17T22:00:25.648Z,90.73
2023-01-17T22:03:01.867Z,90.35
2023-01-17T22:05:34.275Z,90.48
2023-01-17T22:08:15.586Z,90.95
2023-01-17T22:14:47.072Z,90.65
2023-01-17T22:17:16.006Z,90.79
2023-01-17T22:19:46.389Z,90.63
2023-01-17T22:22:15.105Z,90.87
2023-01-17T22:24:44.990Z,90.67
2023-01-17T22:27:14.073Z,91.14
2023-01-17T22:29:44.098Z,91.20
2023-01-17T22:32:13.244Z,90.98
2023-01-17T22:34:42.197Z,91.18
2023-01-17T22:37:10.766Z,91.24
2023-01-17T22:39:39.760Z,91.38
2023-01-17T22:42:13.211Z,91.41
2023-01-17T22:44:48.055Z,91.32
2023-01-17T22:47:19.299Z,91.61
2023-01-17T22:49:50.475Z,91.63
2023-01-17T22:52:26.985Z,91.75
2023-01-17T22:55:00.259Z,92.01
2023-01-17T22:57:35.126Z,91.83
2023-01-17T23:00:15.701Z,92.10
2023-01-17T23:02:44.304Z,91.83
2023-01-17T23:05:13.098Z,91.97
2023-01-17T23:07:44.692Z,92.08
2023-01-17T23:10:34.649Z,92.47
2023-01-17T23:13:03.543Z,92.28
2023-01-17T23:15:51.178Z,92.46
2023-01-17T23:18:39.205Z,92.75
2023-01-17T23:21:09.801Z,92.49
2023-01-17T23:23:38.408Z,92.70
2023-01-17T23:26:07.334Z,92.89
2023-01-17T23:28:36.389Z,92.99
2023-01-17T23:31:06.885Z,93.21
2023-01-17T23:33:39.210Z,92.88
2023-01-17T23:36:10.707Z,93.28
2023-01-17T23:38:46.316Z,93.08
2023-01-17T23:41:36.176Z,93.04
2023-01-17T23:44:08.637Z,93.14
2023-01-17T23:46:40.124Z,93.43
2023-01-17T23:49:15.221Z,93.26
2023-01-17T23:51:46.995Z,93.32
2023-01-17T23:54:19.105Z,93.37
2023-01-17T23:56:51.460Z,93.30
2023-01-17T23:59:23.868Z,93.35
